»·PEaware :: N621CV KSUN-KBOI

N621CV :: KSUN-KBOI

FLIGHT INFORMATION

Flight Status: Arrived
Operator: Privately registered:
United States
More flights under this callsign
Pilot: Paul T. (5885)
Aircraft: CESSNA T210 TURBO CENTURION
(T210)
More flights by this aircraft type
Origin: KSUN Friedman Meml
United States
Destination: KBOI Boise Air Terminal/Gowen
United States
More flights between these airports :: More routes between these airports
Route: SOLDE V444 BOI
File this flight plan on PilotEdge
Remarks: RMK / SIMBRIEF
Altitude:
(Current/Filed)
18,000ft
Speed:
(Current/Filed)
178kts
Departed: 30-Mar-20 09:06 AM
Arrived: 30-Mar-20 09:58 AM
Distance/Time
Traveled:
84nm/0:52
Distance/Time
To Go:
Arrived

Flight Plot

Page will automatically refresh every two minutes.


Map Options




Map Legend


Flown Route
Filed Route
Departure Airport
Arrival Airport
Navaid (VOR, NDB)
Fix

Horizontal Profiles

Position Reports

Time Latitude Longitude Heading Altitude Ground
Speed
30-Mar-20 08:47 43.507132 -114.301010 0 5303ft 0kts
30-Mar-20 08:48 43.507132 -114.301010 159 5303ft 0kts
30-Mar-20 08:49 43.507132 -114.301010 159 5303ft 0kts
30-Mar-20 08:50 43.507132 -114.301010 159 5303ft 0kts
30-Mar-20 08:51 43.507132 -114.301010 159 5303ft 0kts
30-Mar-20 08:52 43.507132 -114.301010 159 5303ft 0kts
30-Mar-20 08:53 43.507132 -114.301010 159 5303ft 0kts
30-Mar-20 08:54 43.507132 -114.301010 159 5303ft 0kts
30-Mar-20 08:55 43.507132 -114.301010 159 5303ft 0kts
30-Mar-20 08:56 43.507132 -114.301010 159 5303ft 0kts
30-Mar-20 08:57 43.507131 -114.300867 17 5303ft 0kts
30-Mar-20 08:58 43.509134 -114.302192 318 5308ft 11kts
30-Mar-20 08:59 43.511038 -114.304068 326 5312ft 0kts
30-Mar-20 09:00 43.511079 -114.304104 326 5312ft 0kts
30-Mar-20 09:01 43.511083 -114.304107 327 5312ft 0kts
30-Mar-20 09:02 43.511083 -114.304107 327 5312ft 0kts
30-Mar-20 09:03 43.511132 -114.304151 326 5312ft 0kts
30-Mar-20 09:04 43.511945 -114.303591 117 5313ft 8kts
30-Mar-20 09:05 43.499149 -114.290966 132 5512ft 83kts
30-Mar-20 09:06 43.478903 -114.277191 165 6111ft 98kts
30-Mar-20 09:07 43.452384 -114.265717 161 6798ft 102kts
30-Mar-20 09:08 43.425359 -114.252596 158 7526ft 103kts
30-Mar-20 09:09 43.397930 -114.239024 161 8338ft 105kts
30-Mar-20 09:10 43.371080 -114.223554 154 9232ft 105kts
30-Mar-20 09:11 43.346689 -114.206833 155 10119ft 107kts
30-Mar-20 09:12 43.330091 -114.220646 258 10936ft 96kts
30-Mar-20 09:13 43.325817 -114.256832 259 11767ft 99kts
30-Mar-20 09:14 43.319554 -114.293510 247 12526ft 100kts
30-Mar-20 09:15 43.310099 -114.327095 252 13441ft 94kts
30-Mar-20 09:16 43.300821 -114.363856 254 14088ft 106kts
30-Mar-20 09:17 43.293358 -114.404731 253 14734ft 115kts
30-Mar-20 09:18 43.284139 -114.445986 259 15479ft 112kts
30-Mar-20 09:19 43.275696 -114.487092 253 16197ft 115kts
30-Mar-20 09:20 43.265209 -114.528184 255 16813ft 120kts
30-Mar-20 09:21 43.255817 -114.571698 264 17362ft 122kts
30-Mar-20 09:22 43.264562 -114.612993 278 17905ft 127kts
30-Mar-20 09:23 43.273745 -114.659630 281 18035ft 139kts
30-Mar-20 09:24 43.283381 -114.711632 287 18115ft 144kts
30-Mar-20 09:25 43.292624 -114.764436 279 18065ft 151kts
30-Mar-20 09:26 43.300989 -114.820735 280 17922ft 154kts
30-Mar-20 09:27 43.308334 -114.877551 276 17785ft 155kts
30-Mar-20 09:28 43.318979 -114.931615 292 17706ft 156kts
30-Mar-20 09:29 43.334025 -114.986039 282 17607ft 154kts
30-Mar-20 09:30 43.343901 -115.041026 283 17750ft 144kts
30-Mar-20 09:31 43.353627 -115.092161 283 17991ft 137kts
30-Mar-20 09:32 43.363043 -115.141104 282 18283ft 132kts
30-Mar-20 09:33 43.372132 -115.189297 282 18387ft 136kts
30-Mar-20 09:34 43.380943 -115.239518 281 18581ft 137kts
30-Mar-20 09:35 43.391049 -115.292348 283 18364ft 157kts
30-Mar-20 09:36 43.401316 -115.350835 283 18017ft 163kts
30-Mar-20 09:37 43.410770 -115.406806 280 17843ft 161kts
30-Mar-20 09:38 43.421477 -115.468566 284 17174ft 169kts
30-Mar-20 09:39 43.434105 -115.529808 284 16528ft 171kts
30-Mar-20 09:40 43.446552 -115.589478 285 16028ft 167kts
30-Mar-20 09:41 43.457589 -115.645633 282 15251ft 149kts
30-Mar-20 09:42 43.463475 -115.699667 279 14562ft 162kts
30-Mar-20 09:43 43.476161 -115.757258 283 13878ft 162kts
30-Mar-20 09:44 43.490010 -115.814637 285 13091ft 160kts
30-Mar-20 09:45 43.503989 -115.873609 282 12102ft 164kts
30-Mar-20 09:46 43.517745 -115.930898 279 11178ft 161kts
30-Mar-20 09:47 43.527152 -115.989245 276 10341ft 157kts
30-Mar-20 09:48 43.532175 -116.048097 270 9151ft 151kts
30-Mar-20 09:49 43.534937 -116.103778 268 8153ft 136kts
30-Mar-20 09:50 43.530594 -116.147205 259 7544ft 89kts
30-Mar-20 09:51 43.535230 -116.177893 279 6206ft 82kts
30-Mar-20 09:52 43.542973 -116.208008 288 4834ft 88kts
30-Mar-20 09:53 43.551520 -116.240658 285 4094ft 96kts
30-Mar-20 09:54 43.561113 -116.274225 316 3721ft 98kts
30-Mar-20 09:55 43.576919 -116.265220 95 3234ft 77kts
30-Mar-20 09:57 43.569798 -116.241939 120 2823ft 61kts
30-Mar-20 09:58 43.567046 -116.233955 118 2830ft 10kts
30-Mar-20 09:59 43.565929 -116.233358 175 2832ft 0kts
30-Mar-20 10:00 43.563907 -116.234933 251 2826ft 7kts
30-Mar-20 10:01 43.563986 -116.236566 359 2823ft 0kts
30-Mar-20 10:02 43.564035 -116.236566 358 2823ft 0kts

Navigation Log

Ident Type
Flight plan parsing failed, navigation log unavailable